sensor_id;sensor_type;location;lat;lon;timestamp;P1;durP1;ratioP1;P2;durP2;ratioP2
77944;SDS011;67142;47.404;-1.384;2023-04-25T00:01:06;14.48;;;13.07;;
77944;SDS011;67142;47.404;-1.384;2023-04-25T00:03:34;14.67;;;13.20;;
77944;SDS011;67142;47.404;-1.384;2023-04-25T00:06:00;18.10;;;13.15;;
77944;SDS011;67142;47.404;-1.384;2023-04-25T00:08:29;16.30;;;13.70;;
77944;SDS011;67142;47.404;-1.384;2023-04-25T00:10:56;18.08;;;13.35;;
77944;SDS011;67142;47.404;-1.384;2023-04-25T00:13:22;18.77;;;13.35;;
77944;SDS011;67142;47.404;-1.384;2023-04-25T00:15:48;17.53;;;13.27;;
77944;SDS011;67142;47.404;-1.384;2023-04-25T00:18:15;13.95;;;12.65;;
77944;SDS011;67142;47.404;-1.384;2023-04-25T00:20:42;15.15;;;13.10;;
77944;SDS011;67142;47.404;-1.384;2023-04-25T00:23:11;14.60;;;12.80;;
77944;SDS011;67142;47.404;-1.384;2023-04-25T00:25:37;15.05;;;13.43;;
77944;SDS011;67142;47.404;-1.384;2023-04-25T00:28:03;14.90;;;13.43;;
77944;SDS011;67142;47.404;-1.384;2023-04-25T00:30:29;14.57;;;13.02;;
77944;SDS011;67142;47.404;-1.384;2023-04-25T00:32:55;17.83;;;13.45;;
77944;SDS011;67142;47.404;-1.384;2023-04-25T00:35:21;14.93;;;13.40;;
77944;SDS011;67142;47.404;-1.384;2023-04-25T00:37:47;14.68;;;13.27;;
77944;SDS011;67142;47.404;-1.384;2023-04-25T00:40:13;18.57;;;13.47;;
77944;SDS011;67142;47.404;-1.384;2023-04-25T00:42:39;15.07;;;13.43;;
77944;SDS011;67142;47.404;-1.384;2023-04-25T00:45:06;15.02;;;13.07;;
77944;SDS011;67142;47.404;-1.384;2023-04-25T00:47:32;20.35;;;13.27;;
77944;SDS011;67142;47.404;-1.384;2023-04-25T00:49:59;15.18;;;13.20;;
77944;SDS011;67142;47.404;-1.384;2023-04-25T00:52:25;14.13;;;12.83;;
77944;SDS011;67142;47.404;-1.384;2023-04-25T00:54:51;16.85;;;13.65;;
77944;SDS011;67142;47.404;-1.384;2023-04-25T00:57:17;15.10;;;13.57;;
77944;SDS011;67142;47.404;-1.384;2023-04-25T00:59:44;19.75;;;14.02;;
77944;SDS011;67142;47.404;-1.384;2023-04-25T01:02:11;16.20;;;13.48;;
77944;SDS011;67142;47.404;-1.384;2023-04-25T01:04:38;17.20;;;13.87;;
77944;SDS011;67142;47.404;-1.384;2023-04-25T01:07:05;14.77;;;13.07;;
77944;SDS011;67142;47.404;-1.384;2023-04-25T01:09:31;15.48;;;13.30;;
77944;SDS011;67142;47.404;-1.384;2023-04-25T01:11:57;14.68;;;12.88;;
77944;SDS011;67142;47.404;-1.384;2023-04-25T01:14:23;16.00;;;12.85;;
77944;SDS011;67142;47.404;-1.384;2023-04-25T01:16:49;15.57;;;13.47;;
77944;SDS011;67142;47.404;-1.384;2023-04-25T01:19:16;14.18;;;12.82;;
77944;SDS011;67142;47.404;-1.384;2023-04-25T01:21:43;15.60;;;13.13;;
77944;SDS011;67142;47.404;-1.384;2023-04-25T01:24:10;14.52;;;13.10;;
77944;SDS011;67142;47.404;-1.384;2023-04-25T01:26:36;15.25;;;13.60;;
77944;SDS011;67142;47.404;-1.384;2023-04-25T01:29:03;14.43;;;12.93;;
77944;SDS011;67142;47.404;-1.384;2023-04-25T01:31:30;16.13;;;13.52;;
77944;SDS011;67142;47.404;-1.384;2023-04-25T01:33:56;16.90;;;13.55;;
77944;SDS011;67142;47.404;-1.384;2023-04-25T01:36:22;19.17;;;13.07;;
77944;SDS011;67142;47.404;-1.384;2023-04-25T01:38:48;14.55;;;13.10;;
77944;SDS011;67142;47.404;-1.384;2023-04-25T01:41:15;14.73;;;13.33;;
77944;SDS011;67142;47.404;-1.384;2023-04-25T01:43:42;14.93;;;13.00;;
77944;SDS011;67142;47.404;-1.384;2023-04-25T01:46:08;14.57;;;13.23;;
77944;SDS011;67142;47.404;-1.384;2023-04-25T01:48:34;16.00;;;13.40;;
77944;SDS011;67142;47.404;-1.384;2023-04-25T01:51:00;15.05;;;13.40;;
77944;SDS011;67142;47.404;-1.384;2023-04-25T01:53:26;15.77;;;13.07;;
77944;SDS011;67142;47.404;-1.384;2023-04-25T01:55:53;14.93;;;13.25;;
77944;SDS011;67142;47.404;-1.384;2023-04-25T01:58:19;15.63;;;13.00;;
77944;SDS011;67142;47.404;-1.384;2023-04-25T02:00:45;14.68;;;13.05;;
77944;SDS011;67142;47.404;-1.384;2023-04-25T02:03:11;14.02;;;12.60;;
77944;SDS011;67142;47.404;-1.384;2023-04-25T02:05:38;16.93;;;12.70;;
77944;SDS011;67142;47.404;-1.384;2023-04-25T02:08:08;15.05;;;12.85;;
77944;SDS011;67142;47.404;-1.384;2023-04-25T02:10:34;17.02;;;13.30;;
77944;SDS011;67142;47.404;-1.384;2023-04-25T02:13:00;16.85;;;12.90;;
77944;SDS011;67142;47.404;-1.384;2023-04-25T02:15:26;14.70;;;13.30;;
77944;SDS011;67142;47.404;-1.384;2023-04-25T02:17:52;14.83;;;13.30;;
77944;SDS011;67142;47.404;-1.384;2023-04-25T02:20:21;14.98;;;13.48;;
77944;SDS011;67142;47.404;-1.384;2023-04-25T02:22:48;14.93;;;13.40;;
77944;SDS011;67142;47.404;-1.384;2023-04-25T02:25:14;14.65;;;13.30;;
77944;SDS011;67142;47.404;-1.384;2023-04-25T02:27:41;15.43;;;13.32;;
77944;SDS011;67142;47.404;-1.384;2023-04-25T02:30:07;15.20;;;13.60;;
77944;SDS011;67142;47.404;-1.384;2023-04-25T02:32:34;17.02;;;13.63;;
77944;SDS011;67142;47.404;-1.384;2023-04-25T02:35:00;15.32;;;13.75;;
77944;SDS011;67142;47.404;-1.384;2023-04-25T02:37:32;15.35;;;12.93;;
77944;SDS011;67142;47.404;-1.384;2023-04-25T02:39:58;16.65;;;13.70;;
77944;SDS011;67142;47.404;-1.384;2023-04-25T02:42:24;17.57;;;13.73;;
77944;SDS011;67142;47.404;-1.384;2023-04-25T02:44:50;17.02;;;12.68;;
77944;SDS011;67142;47.404;-1.384;2023-04-25T02:47:16;15.55;;;13.70;;
77944;SDS011;67142;47.404;-1.384;2023-04-25T02:49:42;15.02;;;13.38;;
77944;SDS011;67142;47.404;-1.384;2023-04-25T02:52:08;15.93;;;13.50;;
77944;SDS011;67142;47.404;-1.384;2023-04-25T02:54:34;15.37;;;13.40;;
77944;SDS011;67142;47.404;-1.384;2023-04-25T02:57:00;15.07;;;13.27;;
77944;SDS011;67142;47.404;-1.384;2023-04-25T02:59:27;16.63;;;13.30;;
77944;SDS011;67142;47.404;-1.384;2023-04-25T03:01:53;14.95;;;13.32;;
77944;SDS011;67142;47.404;-1.384;2023-04-25T03:04:19;16.35;;;13.23;;
77944;SDS011;67142;47.404;-1.384;2023-04-25T03:06:48;14.67;;;13.20;;
77944;SDS011;67142;47.404;-1.384;2023-04-25T03:09:14;15.77;;;13.95;;
77944;SDS011;67142;47.404;-1.384;2023-04-25T03:11:40;17.95;;;13.52;;
77944;SDS011;67142;47.404;-1.384;2023-04-25T03:14:06;14.52;;;13.20;;
77944;SDS011;67142;47.404;-1.384;2023-04-25T03:16:32;15.25;;;13.63;;
77944;SDS011;67142;47.404;-1.384;2023-04-25T03:18:58;14.60;;;13.10;;
77944;SDS011;67142;47.404;-1.384;2023-04-25T03:21:25;14.98;;;13.40;;
77944;SDS011;67142;47.404;-1.384;2023-04-25T03:23:51;17.13;;;13.48;;
77944;SDS011;67142;47.404;-1.384;2023-04-25T03:26:17;20.52;;;13.63;;
77944;SDS011;67142;47.404;-1.384;2023-04-25T03:28:43;15.18;;;13.23;;
77944;SDS011;67142;47.404;-1.384;2023-04-25T03:31:09;15.23;;;13.63;;
77944;SDS011;67142;47.404;-1.384;2023-04-25T03:33:35;18.85;;;13.77;;
77944;SDS011;67142;47.404;-1.384;2023-04-25T03:36:01;15.40;;;13.80;;
77944;SDS011;67142;47.404;-1.384;2023-04-25T03:38:27;18.15;;;13.60;;
77944;SDS011;67142;47.404;-1.384;2023-04-25T03:40:53;15.52;;;14.02;;
77944;SDS011;67142;47.404;-1.384;2023-04-25T03:43:21;14.90;;;13.50;;
77944;SDS011;67142;47.404;-1.384;2023-04-25T03:45:47;14.40;;;12.98;;
77944;SDS011;67142;47.404;-1.384;2023-04-25T03:48:13;14.93;;;13.35;;
77944;SDS011;67142;47.404;-1.384;2023-04-25T03:50:39;16.10;;;13.20;;
77944;SDS011;67142;47.404;-1.384;2023-04-25T03:53:05;17.92;;;13.23;;
77944;SDS011;67142;47.404;-1.384;2023-04-25T03:55:31;15.10;;;13.30;;
77944;SDS011;67142;47.404;-1.384;2023-04-25T03:57:57;14.77;;;13.23;;
77944;SDS011;67142;47.404;-1.384;2023-04-25T04:00:24;14.02;;;12.63;;
77944;SDS011;67142;47.404;-1.384;2023-04-25T04:02:50;14.50;;;13.15;;
77944;SDS011;67142;47.404;-1.384;2023-04-25T04:05:16;14.93;;;13.40;;
77944;SDS011;67142;47.404;-1.384;2023-04-25T04:07:42;15.47;;;13.07;;
77944;SDS011;67142;47.404;-1.384;2023-04-25T04:10:09;14.38;;;12.73;;
77944;SDS011;67142;47.404;-1.384;2023-04-25T04:12:35;15.05;;;13.40;;
77944;SDS011;67142;47.404;-1.384;2023-04-25T04:15:04;14.95;;;13.55;;
77944;SDS011;67142;47.404;-1.384;2023-04-25T04:17:31;14.50;;;13.02;;
77944;SDS011;67142;47.404;-1.384;2023-04-25T04:19:57;14.40;;;13.10;;
77944;SDS011;67142;47.404;-1.384;2023-04-25T04:22:23;13.70;;;12.40;;
77944;SDS011;67142;47.404;-1.384;2023-04-25T04:24:50;14.75;;;13.23;;
77944;SDS011;67142;47.404;-1.384;2023-04-25T04:27:19;16.48;;;13.25;;
77944;SDS011;67142;47.404;-1.384;2023-04-25T04:29:46;14.65;;;12.38;;
77944;SDS011;67142;47.404;-1.384;2023-04-25T04:32:13;17.80;;;12.97;;
77944;SDS011;67142;47.404;-1.384;2023-04-25T04:34:39;14.70;;;13.27;;
77944;SDS011;67142;47.404;-1.384;2023-04-25T04:37:06;15.88;;;13.35;;
77944;SDS011;67142;47.404;-1.384;2023-04-25T04:39:32;14.10;;;12.82;;
77944;SDS011;67142;47.404;-1.384;2023-04-25T04:41:58;14.73;;;13.32;;
77944;SDS011;67142;47.404;-1.384;2023-04-25T04:44:26;14.37;;;13.00;;
77944;SDS011;67142;47.404;-1.384;2023-04-25T04:46:53;15.32;;;13.73;;
77944;SDS011;67142;47.404;-1.384;2023-04-25T04:49:20;17.55;;;13.32;;
77944;SDS011;67142;47.404;-1.384;2023-04-25T04:51:46;15.07;;;13.57;;
77944;SDS011;67142;47.404;-1.384;2023-04-25T04:54:12;15.00;;;13.43;;
77944;SDS011;67142;47.404;-1.384;2023-04-25T04:56:38;14.87;;;13.37;;
77944;SDS011;67142;47.404;-1.384;2023-04-25T04:59:05;18.95;;;13.90;;
77944;SDS011;67142;47.404;-1.384;2023-04-25T05:01:32;15.63;;;13.98;;
77944;SDS011;67142;47.404;-1.384;2023-04-25T05:04:00;15.23;;;13.57;;
77944;SDS011;67142;47.404;-1.384;2023-04-25T05:06:27;14.95;;;13.55;;
77944;SDS011;67142;47.404;-1.384;2023-04-25T05:08:56;14.97;;;13.60;;
77944;SDS011;67142;47.404;-1.384;2023-04-25T05:11:23;18.27;;;14.50;;
77944;SDS011;67142;47.404;-1.384;2023-04-25T05:13:51;17.55;;;14.40;;
77944;SDS011;67142;47.404;-1.384;2023-04-25T05:16:17;18.27;;;14.13;;
77944;SDS011;67142;47.404;-1.384;2023-04-25T05:18:43;19.33;;;14.07;;
77944;SDS011;67142;47.404;-1.384;2023-04-25T05:21:09;16.27;;;14.13;;
77944;SDS011;67142;47.404;-1.384;2023-04-25T05:23:35;15.15;;;13.75;;
77944;SDS011;67142;47.404;-1.384;2023-04-25T05:26:01;15.40;;;13.60;;
77944;SDS011;67142;47.404;-1.384;2023-04-25T05:28:27;15.20;;;13.40;;
77944;SDS011;67142;47.404;-1.384;2023-04-25T05:30:53;15.13;;;13.60;;
77944;SDS011;67142;47.404;-1.384;2023-04-25T05:33:19;18.30;;;13.03;;
77944;SDS011;67142;47.404;-1.384;2023-04-25T05:35:45;15.68;;;13.98;;
77944;SDS011;67142;47.404;-1.384;2023-04-25T05:38:11;15.35;;;13.85;;
77944;SDS011;67142;47.404;-1.384;2023-04-25T05:40:38;14.93;;;13.48;;
77944;SDS011;67142;47.404;-1.384;2023-04-25T05:43:04;16.83;;;14.35;;
77944;SDS011;67142;47.404;-1.384;2023-04-25T05:45:30;15.70;;;14.10;;
77944;SDS011;67142;47.404;-1.384;2023-04-25T05:47:56;15.88;;;14.02;;
77944;SDS011;67142;47.404;-1.384;2023-04-25T05:50:22;16.05;;;14.35;;
77944;SDS011;67142;47.404;-1.384;2023-04-25T05:52:48;17.63;;;14.63;;
77944;SDS011;67142;47.404;-1.384;2023-04-25T05:55:14;15.90;;;14.25;;
77944;SDS011;67142;47.404;-1.384;2023-04-25T05:57:40;16.30;;;14.67;;
77944;SDS011;67142;47.404;-1.384;2023-04-25T06:00:08;15.63;;;14.02;;
77944;SDS011;67142;47.404;-1.384;2023-04-25T06:02:34;15.60;;;14.13;;
77944;SDS011;67142;47.404;-1.384;2023-04-25T06:05:00;18.45;;;14.98;;
77944;SDS011;67142;47.404;-1.384;2023-04-25T06:07:28;16.73;;;15.02;;
77944;SDS011;67142;47.404;-1.384;2023-04-25T06:09:55;16.13;;;14.37;;
77944;SDS011;67142;47.404;-1.384;2023-04-25T06:12:21;16.48;;;14.70;;
77944;SDS011;67142;47.404;-1.384;2023-04-25T06:14:47;16.70;;;15.00;;
77944;SDS011;67142;47.404;-1.384;2023-04-25T06:17:13;15.55;;;13.93;;
77944;SDS011;67142;47.404;-1.384;2023-04-25T06:19:39;16.20;;;14.60;;
77944;SDS011;67142;47.404;-1.384;2023-04-25T06:22:05;18.83;;;14.70;;
77944;SDS011;67142;47.404;-1.384;2023-04-25T06:24:32;17.55;;;14.10;;
77944;SDS011;67142;47.404;-1.384;2023-04-25T06:26:58;18.08;;;15.13;;
77944;SDS011;67142;47.404;-1.384;2023-04-25T06:29:24;16.58;;;14.10;;
77944;SDS011;67142;47.404;-1.384;2023-04-25T06:31:51;19.77;;;16.15;;
77944;SDS011;67142;47.404;-1.384;2023-04-25T06:34:17;16.20;;;13.73;;
77944;SDS011;67142;47.404;-1.384;2023-04-25T06:36:43;20.52;;;14.20;;
77944;SDS011;67142;47.404;-1.384;2023-04-25T06:39:09;16.02;;;14.43;;
77944;SDS011;67142;47.404;-1.384;2023-04-25T06:41:35;15.98;;;14.40;;
77944;SDS011;67142;47.404;-1.384;2023-04-25T06:44:01;16.35;;;14.63;;
77944;SDS011;67142;47.404;-1.384;2023-04-25T06:46:28;16.70;;;14.93;;
77944;SDS011;67142;47.404;-1.384;2023-04-25T06:48:54;15.82;;;14.25;;
77944;SDS011;67142;47.404;-1.384;2023-04-25T06:51:20;17.13;;;14.93;;
77944;SDS011;67142;47.404;-1.384;2023-04-25T06:53:46;16.80;;;15.10;;
77944;SDS011;67142;47.404;-1.384;2023-04-25T06:56:12;17.30;;;15.50;;
77944;SDS011;67142;47.404;-1.384;2023-04-25T06:58:38;16.30;;;14.43;;
77944;SDS011;67142;47.404;-1.384;2023-04-25T07:01:04;17.42;;;15.35;;
77944;SDS011;67142;47.404;-1.384;2023-04-25T07:03:30;19.13;;;15.43;;
77944;SDS011;67142;47.404;-1.384;2023-04-25T07:05:56;16.95;;;15.25;;
77944;SDS011;67142;47.404;-1.384;2023-04-25T07:08:22;19.90;;;15.43;;
77944;SDS011;67142;47.404;-1.384;2023-04-25T07:10:48;19.20;;;15.53;;
77944;SDS011;67142;47.404;-1.384;2023-04-25T07:13:14;17.00;;;14.27;;
77944;SDS011;67142;47.404;-1.384;2023-04-25T07:15:40;17.90;;;15.63;;
77944;SDS011;67142;47.404;-1.384;2023-04-25T07:18:07;19.08;;;14.93;;
77944;SDS011;67142;47.404;-1.384;2023-04-25T07:20:33;16.40;;;14.68;;
77944;SDS011;67142;47.404;-1.384;2023-04-25T07:22:59;16.63;;;14.83;;
77944;SDS011;67142;47.404;-1.384;2023-04-25T07:25:25;16.33;;;14.82;;
77944;SDS011;67142;47.404;-1.384;2023-04-25T07:45:12;17.13;;;15.50;;
77944;SDS011;67142;47.404;-1.384;2023-04-25T07:47:38;17.13;;;14.88;;
77944;SDS011;67142;47.404;-1.384;2023-04-25T07:50:04;17.15;;;14.95;;
77944;SDS011;67142;47.404;-1.384;2023-04-25T07:52:31;17.90;;;15.65;;
77944;SDS011;67142;47.404;-1.384;2023-04-25T07:54:57;18.08;;;16.38;;
77944;SDS011;67142;47.404;-1.384;2023-04-25T07:57:23;17.17;;;15.40;;
77944;SDS011;67142;47.404;-1.384;2023-04-25T07:59:49;18.13;;;16.30;;
77944;SDS011;67142;47.404;-1.384;2023-04-25T08:02:15;17.33;;;15.70;;
77944;SDS011;67142;47.404;-1.384;2023-04-25T08:04:41;17.75;;;16.02;;
77944;SDS011;67142;47.404;-1.384;2023-04-25T08:07:07;18.30;;;16.40;;
77944;SDS011;67142;47.404;-1.384;2023-04-25T08:09:34;18.00;;;15.93;;
77944;SDS011;67142;47.404;-1.384;2023-04-25T08:12:01;17.73;;;15.93;;
77944;SDS011;67142;47.404;-1.384;2023-04-25T08:14:28;17.77;;;16.08;;
77944;SDS011;67142;47.404;-1.384;2023-04-25T08:16:56;18.65;;;15.50;;
77944;SDS011;67142;47.404;-1.384;2023-04-25T08:19:22;17.67;;;16.00;;
77944;SDS011;67142;47.404;-1.384;2023-04-25T08:21:48;17.27;;;15.50;;
77944;SDS011;67142;47.404;-1.384;2023-04-25T08:24:15;18.42;;;16.48;;
77944;SDS011;67142;47.404;-1.384;2023-04-25T08:26:41;19.38;;;16.73;;
77944;SDS011;67142;47.404;-1.384;2023-04-25T08:29:07;19.13;;;16.23;;
77944;SDS011;67142;47.404;-1.384;2023-04-25T08:31:33;19.07;;;16.63;;
77944;SDS011;67142;47.404;-1.384;2023-04-25T08:33:59;18.47;;;16.77;;
77944;SDS011;67142;47.404;-1.384;2023-04-25T08:36:25;19.17;;;17.10;;
77944;SDS011;67142;47.404;-1.384;2023-04-25T08:38:53;18.15;;;16.38;;
77944;SDS011;67142;47.404;-1.384;2023-04-25T08:41:19;18.30;;;16.40;;
77944;SDS011;67142;47.404;-1.384;2023-04-25T08:43:47;18.58;;;16.77;;
77944;SDS011;67142;47.404;-1.384;2023-04-25T08:46:15;19.73;;;17.37;;
77944;SDS011;67142;47.404;-1.384;2023-04-25T08:48:42;18.85;;;16.95;;
77944;SDS011;67142;47.404;-1.384;2023-04-25T08:51:10;19.92;;;17.50;;
77944;SDS011;67142;47.404;-1.384;2023-04-25T08:53:40;19.98;;;17.02;;
77944;SDS011;67142;47.404;-1.384;2023-04-25T08:56:07;23.95;;;18.15;;
77944;SDS011;67142;47.404;-1.384;2023-04-25T08:58:34;19.57;;;17.50;;
77944;SDS011;67142;47.404;-1.384;2023-04-25T09:01:01;19.63;;;17.80;;
77944;SDS011;67142;47.404;-1.384;2023-04-25T09:03:27;19.38;;;17.55;;
77944;SDS011;67142;47.404;-1.384;2023-04-25T09:05:53;18.55;;;16.85;;
77944;SDS011;67142;47.404;-1.384;2023-04-25T09:08:19;19.30;;;17.27;;
77944;SDS011;67142;47.404;-1.384;2023-04-25T09:10:45;18.53;;;16.73;;
77944;SDS011;67142;47.404;-1.384;2023-04-25T09:13:12;17.83;;;16.13;;
77944;SDS011;67142;47.404;-1.384;2023-04-25T09:15:47;17.67;;;15.93;;
77944;SDS011;67142;47.404;-1.384;2023-04-25T09:18:13;18.00;;;16.33;;
77944;SDS011;67142;47.404;-1.384;2023-04-25T09:20:43;18.60;;;16.55;;
77944;SDS011;67142;47.404;-1.384;2023-04-25T09:23:09;17.20;;;15.70;;
77944;SDS011;67142;47.404;-1.384;2023-04-25T09:25:36;18.08;;;16.48;;
77944;SDS011;67142;47.404;-1.384;2023-04-25T09:28:04;17.55;;;16.02;;
77944;SDS011;67142;47.404;-1.384;2023-04-25T09:30:31;17.50;;;15.90;;
77944;SDS011;67142;47.404;-1.384;2023-04-25T09:32:57;16.70;;;15.10;;
77944;SDS011;67142;47.404;-1.384;2023-04-25T09:35:29;19.50;;;16.53;;
77944;SDS011;67142;47.404;-1.384;2023-04-25T09:37:55;16.50;;;14.90;;
77944;SDS011;67142;47.404;-1.384;2023-04-25T09:40:21;21.38;;;17.00;;
77944;SDS011;67142;47.404;-1.384;2023-04-25T09:42:47;18.95;;;17.25;;
77944;SDS011;67142;47.404;-1.384;2023-04-25T09:45:13;18.53;;;16.90;;
77944;SDS011;67142;47.404;-1.384;2023-04-25T09:47:42;19.27;;;17.27;;
77944;SDS011;67142;47.404;-1.384;2023-04-25T09:50:14;17.88;;;15.98;;
77944;SDS011;67142;47.404;-1.384;2023-04-25T09:52:41;17.77;;;16.10;;
77944;SDS011;67142;47.404;-1.384;2023-04-25T09:55:07;17.33;;;15.82;;
77944;SDS011;67142;47.404;-1.384;2023-04-25T09:57:33;17.90;;;16.20;;
77944;SDS011;67142;47.404;-1.384;2023-04-25T10:00:04;19.30;;;17.70;;
77944;SDS011;67142;47.404;-1.384;2023-04-25T10:02:34;17.88;;;16.25;;
77944;SDS011;67142;47.404;-1.384;2023-04-25T10:05:00;18.20;;;16.55;;
77944;SDS011;67142;47.404;-1.384;2023-04-25T10:07:29;17.75;;;16.15;;
77944;SDS011;67142;47.404;-1.384;2023-04-25T10:09:59;18.02;;;16.38;;
77944;SDS011;67142;47.404;-1.384;2023-04-25T10:12:28;18.87;;;17.23;;
77944;SDS011;67142;47.404;-1.384;2023-04-25T10:14:54;19.52;;;17.83;;
77944;SDS011;67142;47.404;-1.384;2023-04-25T10:17:20;19.75;;;17.80;;
77944;SDS011;67142;47.404;-1.384;2023-04-25T10:19:47;19.00;;;17.50;;
77944;SDS011;67142;47.404;-1.384;2023-04-25T10:22:32;18.05;;;16.55;;
77944;SDS011;67142;47.404;-1.384;2023-04-25T10:25:00;20.53;;;18.60;;
77944;SDS011;67142;47.404;-1.384;2023-04-25T10:27:28;18.50;;;16.80;;
77944;SDS011;67142;47.404;-1.384;2023-04-25T10:30:05;19.08;;;17.27;;
77944;SDS011;67142;47.404;-1.384;2023-04-25T10:32:35;20.88;;;18.92;;
77944;SDS011;67142;47.404;-1.384;2023-04-25T10:35:17;17.60;;;16.10;;
77944;SDS011;67142;47.404;-1.384;2023-04-25T10:40:22;17.88;;;16.27;;
77944;SDS011;67142;47.404;-1.384;2023-04-25T10:42:48;17.42;;;15.75;;
77944;SDS011;67142;47.404;-1.384;2023-04-25T10:45:14;18.13;;;16.33;;
77944;SDS011;67142;47.404;-1.384;2023-04-25T10:47:43;19.53;;;17.63;;
77944;SDS011;67142;47.404;-1.384;2023-04-25T10:50:10;18.27;;;16.57;;
77944;SDS011;67142;47.404;-1.384;2023-04-25T10:52:36;18.35;;;16.40;;
77944;SDS011;67142;47.404;-1.384;2023-04-25T10:55:05;17.05;;;15.43;;
77944;SDS011;67142;47.404;-1.384;2023-04-25T10:57:44;17.67;;;16.23;;
77944;SDS011;67142;47.404;-1.384;2023-04-25T11:00:15;16.48;;;14.98;;
77944;SDS011;67142;47.404;-1.384;2023-04-25T11:05:10;17.85;;;16.25;;
77944;SDS011;67142;47.404;-1.384;2023-04-25T11:07:44;17.40;;;15.57;;
77944;SDS011;67142;47.404;-1.384;2023-04-25T11:10:11;17.33;;;15.82;;
77944;SDS011;67142;47.404;-1.384;2023-04-25T11:12:37;17.67;;;16.17;;
77944;SDS011;67142;47.404;-1.384;2023-04-25T11:15:04;17.13;;;15.63;;
77944;SDS011;67142;47.404;-1.384;2023-04-25T11:39:49;16.20;;;14.80;;
77944;SDS011;67142;47.404;-1.384;2023-04-25T13:40:51;17.43;;;15.80;;
77944;SDS011;67142;47.404;-1.384;2023-04-25T13:43:21;18.40;;;16.73;;
77944;SDS011;67142;47.404;-1.384;2023-04-25T13:45:48;17.45;;;15.70;;
77944;SDS011;67142;47.404;-1.384;2023-04-25T13:48:14;17.73;;;16.20;;
77944;SDS011;67142;47.404;-1.384;2023-04-25T13:50:40;17.75;;;16.25;;
77944;SDS011;67142;47.404;-1.384;2023-04-25T13:53:06;18.37;;;16.77;;
77944;SDS011;67142;47.404;-1.384;2023-04-25T13:55:33;17.58;;;15.98;;
77944;SDS011;67142;47.404;-1.384;2023-04-25T13:58:00;17.20;;;15.68;;
77944;SDS011;67142;47.404;-1.384;2023-04-25T14:00:32;18.60;;;16.75;;
77944;SDS011;67142;47.404;-1.384;2023-04-25T14:02:58;17.60;;;16.20;;
77944;SDS011;67142;47.404;-1.384;2023-04-25T14:05:24;17.83;;;16.20;;
77944;SDS011;67142;47.404;-1.384;2023-04-25T14:07:50;17.58;;;16.00;;
77944;SDS011;67142;47.404;-1.384;2023-04-25T14:10:16;17.38;;;15.88;;
77944;SDS011;67142;47.404;-1.384;2023-04-25T14:12:42;17.45;;;15.73;;
77944;SDS011;67142;47.404;-1.384;2023-04-25T14:15:08;16.60;;;14.90;;
77944;SDS011;67142;47.404;-1.384;2023-04-25T14:17:35;17.57;;;15.87;;
77944;SDS011;67142;47.404;-1.384;2023-04-25T14:20:02;18.17;;;16.35;;
77944;SDS011;67142;47.404;-1.384;2023-04-25T14:22:30;16.55;;;15.15;;
77944;SDS011;67142;47.404;-1.384;2023-04-25T14:24:56;17.45;;;15.93;;
77944;SDS011;67142;47.404;-1.384;2023-04-25T14:27:23;17.08;;;15.57;;
77944;SDS011;67142;47.404;-1.384;2023-04-25T14:29:49;16.63;;;15.33;;
77944;SDS011;67142;47.404;-1.384;2023-04-25T14:32:15;17.02;;;15.50;;
77944;SDS011;67142;47.404;-1.384;2023-04-25T14:34:41;16.30;;;15.00;;
77944;SDS011;67142;47.404;-1.384;2023-04-25T14:37:07;16.63;;;15.10;;
77944;SDS011;67142;47.404;-1.384;2023-04-25T14:39:33;17.38;;;15.85;;
77944;SDS011;67142;47.404;-1.384;2023-04-25T14:41:59;17.23;;;15.67;;
77944;SDS011;67142;47.404;-1.384;2023-04-25T14:44:25;17.92;;;16.25;;
77944;SDS011;67142;47.404;-1.384;2023-04-25T14:46:51;17.17;;;15.77;;
77944;SDS011;67142;47.404;-1.384;2023-04-25T14:49:17;17.50;;;15.90;;
77944;SDS011;67142;47.404;-1.384;2023-04-25T14:51:43;18.60;;;17.02;;
77944;SDS011;67142;47.404;-1.384;2023-04-25T14:54:09;16.93;;;15.50;;
77944;SDS011;67142;47.404;-1.384;2023-04-25T14:56:36;16.85;;;15.18;;
77944;SDS011;67142;47.404;-1.384;2023-04-25T14:59:02;16.77;;;15.13;;
77944;SDS011;67142;47.404;-1.384;2023-04-25T15:01:29;16.80;;;15.20;;
77944;SDS011;67142;47.404;-1.384;2023-04-25T15:03:55;18.20;;;16.70;;
77944;SDS011;67142;47.404;-1.384;2023-04-25T15:06:22;16.00;;;14.50;;
77944;SDS011;67142;47.404;-1.384;2023-04-25T15:08:51;16.08;;;14.50;;
77944;SDS011;67142;47.404;-1.384;2023-04-25T15:11:18;16.40;;;14.90;;
77944;SDS011;67142;47.404;-1.384;2023-04-25T15:13:45;16.15;;;14.70;;
77944;SDS011;67142;47.404;-1.384;2023-04-25T15:16:11;16.35;;;14.85;;
77944;SDS011;67142;47.404;-1.384;2023-04-25T15:18:37;17.23;;;15.63;;
77944;SDS011;67142;47.404;-1.384;2023-04-25T15:21:03;18.27;;;15.75;;
77944;SDS011;67142;47.404;-1.384;2023-04-25T15:23:29;15.82;;;14.35;;
77944;SDS011;67142;47.404;-1.384;2023-04-25T15:25:55;16.80;;;15.25;;
77944;SDS011;67142;47.404;-1.384;2023-04-25T15:28:21;16.13;;;14.63;;
77944;SDS011;67142;47.404;-1.384;2023-04-25T15:30:47;17.70;;;15.90;;
77944;SDS011;67142;47.404;-1.384;2023-04-25T15:33:13;17.25;;;15.63;;
77944;SDS011;67142;47.404;-1.384;2023-04-25T15:35:40;18.13;;;16.42;;
77944;SDS011;67142;47.404;-1.384;2023-04-25T15:38:06;17.40;;;15.77;;
77944;SDS011;67142;47.404;-1.384;2023-04-25T15:40:32;16.67;;;15.35;;
77944;SDS011;67142;47.404;-1.384;2023-04-25T15:42:58;17.20;;;15.73;;
77944;SDS011;67142;47.404;-1.384;2023-04-25T15:45:24;17.02;;;15.52;;
77944;SDS011;67142;47.404;-1.384;2023-04-25T15:47:51;17.25;;;15.65;;
77944;SDS011;67142;47.404;-1.384;2023-04-25T15:50:17;17.95;;;15.85;;
77944;SDS011;67142;47.404;-1.384;2023-04-25T15:52:43;16.52;;;14.93;;
77944;SDS011;67142;47.404;-1.384;2023-04-25T15:55:10;16.17;;;14.67;;
77944;SDS011;67142;47.404;-1.384;2023-04-25T15:57:37;17.27;;;15.82;;
77944;SDS011;67142;47.404;-1.384;2023-04-25T16:00:06;17.00;;;15.60;;
77944;SDS011;67142;47.404;-1.384;2023-04-25T16:02:35;16.20;;;14.65;;
77944;SDS011;67142;47.404;-1.384;2023-04-25T16:05:01;16.40;;;14.82;;
77944;SDS011;67142;47.404;-1.384;2023-04-25T16:07:27;16.60;;;15.10;;
77944;SDS011;67142;47.404;-1.384;2023-04-25T16:09:54;17.80;;;15.65;;
77944;SDS011;67142;47.404;-1.384;2023-04-25T16:12:20;16.17;;;14.70;;
77944;SDS011;67142;47.404;-1.384;2023-04-25T16:14:46;17.25;;;15.75;;
77944;SDS011;67142;47.404;-1.384;2023-04-25T16:17:12;17.00;;;15.25;;
77944;SDS011;67142;47.404;-1.384;2023-04-25T16:19:38;16.30;;;14.90;;
77944;SDS011;67142;47.404;-1.384;2023-04-25T16:22:04;16.40;;;15.00;;
77944;SDS011;67142;47.404;-1.384;2023-04-25T16:24:32;20.15;;;14.70;;
77944;SDS011;67142;47.404;-1.384;2023-04-25T16:26:58;17.08;;;15.38;;
77944;SDS011;67142;47.404;-1.384;2023-04-25T16:29:24;18.00;;;15.20;;
77944;SDS011;67142;47.404;-1.384;2023-04-25T16:31:50;16.10;;;14.67;;
77944;SDS011;67142;47.404;-1.384;2023-04-25T16:34:16;16.52;;;15.00;;
77944;SDS011;67142;47.404;-1.384;2023-04-25T16:36:42;17.05;;;15.38;;
77944;SDS011;67142;47.404;-1.384;2023-04-25T16:39:08;16.05;;;14.55;;
77944;SDS011;67142;47.404;-1.384;2023-04-25T16:41:35;16.08;;;14.57;;
77944;SDS011;67142;47.404;-1.384;2023-04-25T16:44:01;15.17;;;13.83;;
77944;SDS011;67142;47.404;-1.384;2023-04-25T16:46:27;15.80;;;14.40;;
77944;SDS011;67142;47.404;-1.384;2023-04-25T16:48:53;15.88;;;14.50;;